createdAt,value
2018-02-20T00:34:36.323Z,8.00
2018-02-20T00:37:05.651Z,8.00
2018-02-20T00:39:35.202Z,8.00
2018-02-20T00:42:05.022Z,8.10
2018-02-20T00:44:34.351Z,8.00
2018-02-20T00:47:04.933Z,8.10
2018-02-20T00:49:35.025Z,8.10
2018-02-20T00:52:04.345Z,8.10
2018-02-20T00:54:34.210Z,8.20
2018-02-20T00:57:03.397Z,8.20
2018-02-20T00:59:32.272Z,8.20
2018-02-20T01:02:01.579Z,8.10
2018-02-20T01:04:30.798Z,8.10
2018-02-20T01:06:59.794Z,8.10
2018-02-20T01:09:28.876Z,8.10
2018-02-20T01:11:57.990Z,8.10
2018-02-20T01:14:26.872Z,8.10
2018-02-20T01:16:55.729Z,8.10
2018-02-20T01:21:58.706Z,8.00
2018-02-20T01:24:27.722Z,8.10
2018-02-20T01:26:57.402Z,8.10
2018-02-20T01:35:27.388Z,8.10
2018-02-20T01:37:56.386Z,8.10
2018-02-20T01:40:25.765Z,8.00
2018-02-20T01:42:54.642Z,8.00
2018-02-20T01:45:23.582Z,8.10
2018-02-20T01:47:52.424Z,8.10
2018-02-20T01:50:21.419Z,8.00
2018-02-20T01:52:51.125Z,8.00
2018-02-20T01:55:20.109Z,8.00
2018-02-20T01:57:49.303Z,8.10
2018-02-20T02:00:18.653Z,8.00
2018-02-20T02:02:47.775Z,8.00
2018-02-20T02:05:16.978Z,8.00
2018-02-20T02:07:45.868Z,7.90
2018-02-20T02:10:14.745Z,7.80
2018-02-20T02:12:43.621Z,7.80
2018-02-20T02:15:13.523Z,7.80
2018-02-20T02:17:42.388Z,7.80
2018-02-20T02:20:11.340Z,7.90
2018-02-20T02:22:40.388Z,7.90
2018-02-20T02:25:09.431Z,7.90
2018-02-20T02:27:38.332Z,7.90
2018-02-20T02:30:07.244Z,7.90
2018-02-20T02:32:36.411Z,8.00
2018-02-20T02:35:05.287Z,8.00
2018-02-20T02:37:34.339Z,8.10
2018-02-20T02:40:03.283Z,8.30
2018-02-20T02:42:32.221Z,8.40
2018-02-20T02:45:01.063Z,8.50
2018-02-20T02:47:30.015Z,8.50
2018-02-20T02:49:58.999Z,8.50
2018-02-20T02:52:27.948Z,8.50
2018-02-20T02:54:56.877Z,8.50
2018-02-20T02:57:25.973Z,8.60
2018-02-20T02:59:55.668Z,8.60
2018-02-20T03:02:24.753Z,8.60
2018-02-20T03:04:53.828Z,8.50
2018-02-20T03:07:22.748Z,8.50
2018-02-20T03:09:51.711Z,8.50
2018-02-20T03:12:20.811Z,8.50
2018-02-20T03:14:49.936Z,8.50
2018-02-20T03:17:18.878Z,8.50
2018-02-20T03:19:47.841Z,8.60
2018-02-20T03:22:16.735Z,8.70
2018-02-20T03:24:45.730Z,8.60
2018-02-20T03:27:15.376Z,8.70
2018-02-20T03:29:44.407Z,8.60
2018-02-20T03:32:13.304Z,8.70
2018-02-20T03:34:43.042Z,8.60
2018-02-20T03:37:12.678Z,8.60
2018-02-20T03:39:41.505Z,8.60
2018-02-20T03:42:10.430Z,8.60
2018-02-20T03:44:39.690Z,8.60
2018-02-20T03:47:08.584Z,8.60
2018-02-20T03:49:37.599Z,8.60
2018-02-20T03:52:06.464Z,8.60
2018-02-20T03:54:35.424Z,8.60
2018-02-20T03:57:04.527Z,8.60
2018-02-20T03:59:33.555Z,8.60
2018-02-20T04:02:02.784Z,8.60
2018-02-20T04:04:31.956Z,8.60
2018-02-20T04:07:00.848Z,8.60
2018-02-20T04:09:29.819Z,8.60
2018-02-20T04:11:58.768Z,8.60
2018-02-20T04:14:27.657Z,8.60
2018-02-20T04:16:56.569Z,8.60
2018-02-20T04:19:26.093Z,8.60
2018-02-20T04:21:55.040Z,8.60
2018-02-20T04:24:25.063Z,8.50
2018-02-20T04:26:54.762Z,8.50
2018-02-20T04:29:24.927Z,8.50
2018-02-20T04:31:53.880Z,8.50
2018-02-20T04:34:22.808Z,8.50
2018-02-20T04:36:51.768Z,8.40
2018-02-20T04:39:21.535Z,8.30
2018-02-20T04:41:50.461Z,8.30
2018-02-20T04:44:20.514Z,8.30
2018-02-20T04:46:49.445Z,8.20
2018-02-20T04:49:18.423Z,8.20
2018-02-20T04:51:48.328Z,8.20
2018-02-20T04:54:17.351Z,8.20
2018-02-20T04:56:46.337Z,8.30
2018-02-20T04:59:15.263Z,8.30
2018-02-20T05:01:45.128Z,8.20
2018-02-20T05:04:14.311Z,8.20
2018-02-20T05:06:43.496Z,8.20
2018-02-20T05:09:13.741Z,8.20
2018-02-20T05:11:42.726Z,8.20
2018-02-20T05:14:11.672Z,8.20
2018-02-20T05:16:40.648Z,8.30
2018-02-20T05:19:09.506Z,8.30
2018-02-20T05:21:38.586Z,8.30
2018-02-20T05:24:07.598Z,8.30
2018-02-20T05:26:36.590Z,8.40
2018-02-20T05:29:05.710Z,8.40
2018-02-20T05:31:34.678Z,8.40
2018-02-20T05:34:03.645Z,8.40
2018-02-20T05:36:32.570Z,8.50
2018-02-20T05:39:01.584Z,8.50
2018-02-20T05:41:30.616Z,8.50
2018-02-20T05:43:59.553Z,8.50
2018-02-20T05:46:28.602Z,8.50
2018-02-20T05:48:57.488Z,8.50
2018-02-20T05:51:26.483Z,8.50
2018-02-20T05:53:55.401Z,8.40
2018-02-20T05:56:24.258Z,8.50
2018-02-20T05:58:53.949Z,8.50
2018-02-20T06:01:23.681Z,8.50
2018-02-20T06:03:52.756Z,8.50
2018-02-20T06:06:22.547Z,8.60
2018-02-20T06:08:51.781Z,8.60
2018-02-20T06:11:20.724Z,8.60
2018-02-20T06:13:49.816Z,8.60
2018-02-20T06:16:19.780Z,8.70
2018-02-20T06:18:49.520Z,8.90
2018-02-20T06:21:18.376Z,8.80
2018-02-20T06:23:48.088Z,8.90
2018-02-20T06:26:17.805Z,9.00
2018-02-20T06:28:46.806Z,8.90
2018-02-20T06:31:15.708Z,8.90
2018-02-20T06:33:44.633Z,8.90
2018-02-20T06:36:13.550Z,8.90
2018-02-20T06:38:42.605Z,9.00
2018-02-20T06:41:11.664Z,9.10
2018-02-20T06:43:40.606Z,9.20
2018-02-20T06:46:09.569Z,9.20
2018-02-20T06:48:38.563Z,9.20
2018-02-20T06:51:07.479Z,9.40
2018-02-20T06:53:36.385Z,9.50
2018-02-20T06:56:05.362Z,9.40
2018-02-20T06:58:34.331Z,9.40
2018-02-20T07:01:03.311Z,9.50
2018-02-20T07:03:32.420Z,9.50
2018-02-20T07:06:01.526Z,9.50
2018-02-20T07:08:30.721Z,9.50
2018-02-20T07:10:59.719Z,9.60
2018-02-20T07:13:28.673Z,9.60
2018-02-20T07:15:57.820Z,9.70
2018-02-20T07:18:26.912Z,9.80
2018-02-20T07:20:55.960Z,9.90
2018-02-20T07:23:24.880Z,9.80
2018-02-20T07:25:53.856Z,9.90
2018-02-20T07:28:22.812Z,9.90
2018-02-20T07:30:52.041Z,10.00
2018-02-20T07:33:21.083Z,9.90
2018-02-20T07:35:50.015Z,9.90
2018-02-20T07:38:19.010Z,10.10
2018-02-20T07:40:49.076Z,10.20
2018-02-20T07:43:19.066Z,10.30
2018-02-20T07:45:48.040Z,10.30
2018-02-20T07:48:17.002Z,10.40
2018-02-20T07:50:45.892Z,10.50
2018-02-20T07:53:14.852Z,10.50
2018-02-20T07:55:43.787Z,10.60
2018-02-20T07:58:13.537Z,10.80
2018-02-20T08:00:42.440Z,10.80
2018-02-20T08:03:12.259Z,10.80
2018-02-20T08:05:41.193Z,10.80
2018-02-20T08:08:10.200Z,10.80
2018-02-20T08:10:39.418Z,11.00
2018-02-20T08:13:08.388Z,11.00
2018-02-20T08:15:38.102Z,11.20
2018-02-20T08:18:07.838Z,11.30
2018-02-20T08:20:36.948Z,11.30
2018-02-20T08:23:06.099Z,11.40
2018-02-20T08:25:35.790Z,11.40
2018-02-20T08:28:04.938Z,11.40
2018-02-20T08:30:33.900Z,11.40
2018-02-20T08:33:03.640Z,11.50
2018-02-20T08:35:32.827Z,11.50
2018-02-20T08:38:02.732Z,11.60
2018-02-20T08:40:31.610Z,11.60
2018-02-20T08:43:01.336Z,11.70
2018-02-20T08:45:30.271Z,11.70
2018-02-20T08:47:59.371Z,11.70
2018-02-20T08:50:28.325Z,11.80
2018-02-20T08:52:57.511Z,11.80
2018-02-20T08:55:27.199Z,11.80
2018-02-20T08:57:56.188Z,11.80
2018-02-20T09:00:25.878Z,12.00
2018-02-20T09:02:54.945Z,11.90
2018-02-20T09:05:23.884Z,12.00
2018-02-20T09:07:53.515Z,12.40
2018-02-20T09:10:23.229Z,12.50
2018-02-20T09:12:52.451Z,12.50
2018-02-20T09:15:21.309Z,12.60
2018-02-20T09:17:50.955Z,12.60
2018-02-20T09:20:19.908Z,12.60
2018-02-20T09:22:48.886Z,12.90
2018-02-20T09:25:18.918Z,12.90
2018-02-20T09:27:48.622Z,13.00
2018-02-20T09:30:17.958Z,13.00
2018-02-20T09:32:46.924Z,13.20
2018-02-20T09:35:16.148Z,13.20
2018-02-20T09:37:45.054Z,13.30
2018-02-20T09:40:14.014Z,13.40
2018-02-20T09:42:43.117Z,13.50
2018-02-20T09:45:12.911Z,13.60
2018-02-20T09:47:41.924Z,13.60
2018-02-20T09:50:10.835Z,13.60
2018-02-20T09:52:39.744Z,13.60
2018-02-20T09:55:09.039Z,13.60
2018-02-20T09:57:37.951Z,13.60
2018-02-20T10:00:07.189Z,13.50
2018-02-20T10:02:36.400Z,13.40
2018-02-20T10:05:05.672Z,13.40
2018-02-20T10:07:35.422Z,13.70
2018-02-20T10:10:04.360Z,13.70
2018-02-20T10:12:33.288Z,14.10
2018-02-20T10:15:02.225Z,14.20
2018-02-20T10:17:31.990Z,13.80
2018-02-20T10:20:00.964Z,13.80
2018-02-20T10:22:30.964Z,13.90
2018-02-20T10:24:59.863Z,13.90
2018-02-20T10:27:28.824Z,14.00
2018-02-20T10:29:57.707Z,14.10
2018-02-20T10:32:26.640Z,14.20
2018-02-20T10:34:55.724Z,14.30
2018-02-20T10:37:24.643Z,14.40
2018-02-20T10:39:54.436Z,14.70
2018-02-20T10:42:23.429Z,14.60
2018-02-20T10:44:52.426Z,14.70
2018-02-20T10:47:21.491Z,14.90
2018-02-20T10:49:50.506Z,15.20
2018-02-20T10:52:19.649Z,15.50
2018-02-20T10:54:48.608Z,15.40
2018-02-20T10:57:18.748Z,15.30
2018-02-20T10:59:47.651Z,15.30
2018-02-20T11:02:16.796Z,15.20
2018-02-20T11:04:46.520Z,15.30
2018-02-20T11:07:16.202Z,15.40
2018-02-20T11:09:45.167Z,15.40
2018-02-20T11:12:14.099Z,15.60
2018-02-20T11:14:42.972Z,15.50
2018-02-20T11:17:11.900Z,15.60
2018-02-20T11:19:41.656Z,15.90
2018-02-20T11:22:10.605Z,15.80
2018-02-20T11:24:40.612Z,15.80
2018-02-20T11:27:09.849Z,15.70
2018-02-20T11:29:39.758Z,16.30
2018-02-20T11:32:08.664Z,16.30
2018-02-20T11:34:38.524Z,17.00
2018-02-20T11:37:08.324Z,16.90
2018-02-20T11:39:38.155Z,16.90
2018-02-20T11:42:07.844Z,17.00
2018-02-20T11:44:37.004Z,17.00
2018-02-20T11:47:06.856Z,17.00
2018-02-20T11:49:36.194Z,17.00
2018-02-20T11:52:05.144Z,16.90
2018-02-20T11:54:34.368Z,17.20
2018-02-20T11:57:03.752Z,17.20
2018-02-20T11:59:32.696Z,17.30
2018-02-20T12:02:01.920Z,17.20
2018-02-20T12:04:30.858Z,17.40
2018-02-20T12:06:59.779Z,17.40
2018-02-20T12:09:28.701Z,17.40
2018-02-20T12:11:57.731Z,17.40
2018-02-20T12:14:27.614Z,17.30
2018-02-20T12:16:57.360Z,17.30
2018-02-20T12:19:27.075Z,17.30
2018-02-20T12:21:56.265Z,17.20
2018-02-20T12:24:25.295Z,17.00
2018-02-20T12:26:54.219Z,17.10
2018-02-20T12:29:23.175Z,17.00
2018-02-20T12:31:52.136Z,17.10
2018-02-20T12:34:22.175Z,17.00
2018-02-20T12:36:51.658Z,17.00
2018-02-20T12:39:21.540Z,17.10
2018-02-20T12:41:51.196Z,17.10
2018-02-20T12:44:20.107Z,17.10
2018-02-20T12:46:49.399Z,17.30
2018-02-20T12:49:18.391Z,17.40
2018-02-20T12:51:47.311Z,17.30
2018-02-20T12:54:16.386Z,17.40
2018-02-20T12:56:45.484Z,17.70
2018-02-20T12:59:15.207Z,17.90
2018-02-20T13:01:45.104Z,18.10
2018-02-20T13:04:14.237Z,18.00
2018-02-20T13:06:43.224Z,18.10
2018-02-20T13:09:13.035Z,18.10
2018-02-20T13:11:41.938Z,18.10
2018-02-20T13:14:11.985Z,17.40
2018-02-20T13:16:41.072Z,17.40
2018-02-20T13:19:10.753Z,17.50
2018-02-20T13:21:39.811Z,17.50
2018-02-20T13:24:08.825Z,17.30
2018-02-20T13:26:38.008Z,17.20
2018-02-20T13:29:06.980Z,17.00
2018-02-20T13:31:36.086Z,16.50
2018-02-20T13:34:04.998Z,16.20
2018-02-20T13:36:34.128Z,16.10
2018-02-20T13:39:03.625Z,16.20
2018-02-20T13:41:32.560Z,16.10
2018-02-20T13:44:01.516Z,15.80
2018-02-20T13:46:31.616Z,15.60
2018-02-20T13:49:00.706Z,15.50
2018-02-20T13:51:29.647Z,15.60
2018-02-20T13:53:59.501Z,15.20
2018-02-20T13:56:29.087Z,15.20
2018-02-20T13:58:57.995Z,15.00
2018-02-20T14:01:27.011Z,14.80
2018-02-20T14:03:56.007Z,14.60
2018-02-20T14:06:24.997Z,14.50
2018-02-20T14:08:54.000Z,14.40
2018-02-20T14:11:22.964Z,14.30
2018-02-20T14:13:52.931Z,14.30
2018-02-20T14:16:22.668Z,14.20
2018-02-20T14:18:51.880Z,14.10
2018-02-20T14:21:20.826Z,14.10
2018-02-20T14:23:49.760Z,14.00
2018-02-20T14:26:18.736Z,14.00
2018-02-20T14:28:48.469Z,14.00
2018-02-20T14:31:17.343Z,14.00
2018-02-20T14:33:46.374Z,14.00
2018-02-20T14:36:15.304Z,14.00
2018-02-20T14:38:44.443Z,13.90
2018-02-20T14:41:13.321Z,13.90
2018-02-20T14:43:42.288Z,13.80
2018-02-20T14:46:11.536Z,13.70
2018-02-20T14:48:40.477Z,13.60
2018-02-20T14:51:09.428Z,13.50
2018-02-20T14:53:38.369Z,13.50
2018-02-20T14:56:07.421Z,13.40
2018-02-20T14:58:37.098Z,13.30
2018-02-20T15:01:07.215Z,13.30
2018-02-20T15:03:37.201Z,13.10
2018-02-20T15:06:06.939Z,13.10
2018-02-20T15:08:36.057Z,13.00
2018-02-20T15:11:05.862Z,12.90
2018-02-20T15:13:35.747Z,12.80
2018-02-20T15:16:04.747Z,12.70
2018-02-20T15:18:33.673Z,12.70
2018-02-20T15:21:02.656Z,12.70
2018-02-20T15:23:31.599Z,12.60
2018-02-20T15:26:00.585Z,12.60
2018-02-20T15:28:30.387Z,12.60
2018-02-20T15:31:00.483Z,12.50
2018-02-20T15:33:29.444Z,12.50
2018-02-20T15:35:58.438Z,12.40
2018-02-20T15:38:27.359Z,12.40
2018-02-20T15:40:56.450Z,12.30
2018-02-20T15:43:25.426Z,12.30
2018-02-20T15:45:54.356Z,12.10
2018-02-20T15:48:24.151Z,12.10
2018-02-20T15:50:53.193Z,12.00
2018-02-20T15:53:22.892Z,12.00
2018-02-20T15:55:52.641Z,12.00
2018-02-20T15:58:21.738Z,11.90
2018-02-20T16:00:50.657Z,11.90
2018-02-20T16:03:19.707Z,12.00
2018-02-20T16:05:49.099Z,11.90
2018-02-20T16:08:18.026Z,11.80
2018-02-20T16:10:47.158Z,11.70
2018-02-20T16:13:16.872Z,11.60
2018-02-20T16:15:55.713Z,11.60
2018-02-20T16:18:25.550Z,11.50
2018-02-20T16:20:54.469Z,11.50
2018-02-20T16:23:23.408Z,11.50
2018-02-20T16:25:52.484Z,11.50
2018-02-20T16:28:21.640Z,11.50
2018-02-20T16:30:51.376Z,11.40
2018-02-20T16:33:20.406Z,11.40
2018-02-20T16:35:49.339Z,11.40
2018-02-20T16:38:18.336Z,11.40
2018-02-20T16:40:47.359Z,11.40
2018-02-20T16:43:17.137Z,11.30
2018-02-20T16:45:46.185Z,11.30
2018-02-20T16:48:15.249Z,11.30
2018-02-20T16:50:44.419Z,11.20
2018-02-20T16:53:14.430Z,11.20
2018-02-20T16:55:43.434Z,11.20
2018-02-20T16:58:12.386Z,11.20
2018-02-20T17:00:41.619Z,11.20
2018-02-20T17:03:10.632Z,11.20
2018-02-20T17:05:40.508Z,11.10
2018-02-20T17:08:09.482Z,11.10
2018-02-20T17:10:39.270Z,11.10
2018-02-20T17:13:08.492Z,11.00
2018-02-20T17:15:38.224Z,11.00
2018-02-20T17:18:07.072Z,11.00
2018-02-20T17:20:36.800Z,11.00
2018-02-20T17:23:05.729Z,11.00
2018-02-20T17:25:34.647Z,11.00
2018-02-20T17:28:03.594Z,11.00
2018-02-20T17:30:32.591Z,10.90
2018-02-20T17:33:01.528Z,10.90
2018-02-20T17:35:30.684Z,10.90
2018-02-20T17:38:00.787Z,10.90
2018-02-20T17:40:28.646Z,10.80
2018-02-20T17:42:58.356Z,10.80
2018-02-20T17:45:27.841Z,10.80
2018-02-20T17:47:56.783Z,10.80
2018-02-20T17:50:26.661Z,10.80
2018-02-20T17:52:56.429Z,10.80
2018-02-20T17:55:25.496Z,10.70
2018-02-20T17:57:54.456Z,10.70
2018-02-20T18:00:23.399Z,10.70
2018-02-20T18:02:52.440Z,10.70
2018-02-20T18:05:22.124Z,10.60
2018-02-20T18:07:51.077Z,10.70
2018-02-20T18:10:20.036Z,10.60
2018-02-20T18:12:49.054Z,10.60
2018-02-20T18:15:18.043Z,10.60
2018-02-20T18:17:46.993Z,10.60
2018-02-20T18:20:16.042Z,10.60
2018-02-20T18:22:45.905Z,10.60
2018-02-20T18:25:14.873Z,10.60
2018-02-20T18:27:44.117Z,10.60
2018-02-20T18:30:13.291Z,10.60
2018-02-20T18:32:42.225Z,10.60
2018-02-20T18:35:11.328Z,10.60
2018-02-20T18:37:40.247Z,10.60
2018-02-20T18:40:09.271Z,10.50
2018-02-20T18:42:38.967Z,10.50
2018-02-20T18:45:08.134Z,10.50
2018-02-20T18:47:37.227Z,10.50
2018-02-20T18:50:06.160Z,10.50
2018-02-20T18:52:35.791Z,10.40
2018-02-20T18:55:05.533Z,10.40
2018-02-20T18:57:34.509Z,10.40
2018-02-20T19:00:03.791Z,10.40
2018-02-20T19:02:33.496Z,10.40
2018-02-20T19:05:03.232Z,10.30
2018-02-20T19:07:32.143Z,10.40
2018-02-20T19:10:01.074Z,10.30
2018-02-20T19:12:30.053Z,10.30
2018-02-20T19:14:59.144Z,10.30
2018-02-20T19:17:28.122Z,10.30
2018-02-20T19:19:57.135Z,10.30
2018-02-20T19:22:26.209Z,10.30
2018-02-20T19:24:55.196Z,10.30
2018-02-20T19:27:24.092Z,10.30
2018-02-20T19:29:53.040Z,10.30
2018-02-20T19:32:22.868Z,10.40
2018-02-20T19:34:55.609Z,10.30
2018-02-20T19:37:24.534Z,10.40
2018-02-20T19:39:53.526Z,10.40
2018-02-20T19:42:22.551Z,10.40
2018-02-20T19:44:51.698Z,10.40
2018-02-20T19:47:20.694Z,10.40
2018-02-20T19:49:50.516Z,10.40
2018-02-20T19:52:19.742Z,10.40
2018-02-20T19:54:48.687Z,10.40
2018-02-20T19:57:17.639Z,10.40
2018-02-20T19:59:46.666Z,10.40
2018-02-20T20:02:16.317Z,10.30
2018-02-20T20:04:45.256Z,10.30
2018-02-20T20:07:14.214Z,10.30
2018-02-20T20:09:43.964Z,10.30
2018-02-20T20:12:13.135Z,10.30
2018-02-20T20:14:42.108Z,10.30
2018-02-20T20:17:11.053Z,10.30
2018-02-20T20:19:40.005Z,10.20
2018-02-20T20:22:08.969Z,10.10
2018-02-20T20:24:37.916Z,10.10
2018-02-20T20:27:06.953Z,10.10
2018-02-20T20:29:36.101Z,10.10
2018-02-20T20:32:05.053Z,10.10
2018-02-20T20:34:34.315Z,10.00
2018-02-20T20:37:03.299Z,10.00
2018-02-20T20:39:32.304Z,9.90
2018-02-20T20:42:01.291Z,9.90
2018-02-20T20:44:30.254Z,9.90
2018-02-20T20:47:00.013Z,9.90
2018-02-20T20:49:29.761Z,9.80
2018-02-20T20:51:58.688Z,9.80
2018-02-20T20:54:27.670Z,9.90
2018-02-20T20:56:56.622Z,9.90
2018-02-20T20:59:25.881Z,9.90
2018-02-20T21:01:55.632Z,9.90
2018-02-20T21:04:24.686Z,9.90
2018-02-20T21:06:54.416Z,9.80
2018-02-20T21:09:24.065Z,9.80
2018-02-20T21:11:53.162Z,9.80
2018-02-20T21:14:22.547Z,9.80
2018-02-20T21:16:51.660Z,9.80
2018-02-20T21:19:20.606Z,9.80
2018-02-20T21:21:49.539Z,9.70
2018-02-20T21:24:18.485Z,9.70
2018-02-20T21:26:48.347Z,9.70
2018-02-20T21:29:17.344Z,9.70
2018-02-20T21:31:46.300Z,9.70
2018-02-20T21:34:15.311Z,9.70
2018-02-20T21:36:44.221Z,9.70
2018-02-20T21:39:13.492Z,9.60
2018-02-20T21:41:42.583Z,9.60
2018-02-20T21:44:11.577Z,9.60
2018-02-20T21:46:41.379Z,9.50
2018-02-20T21:49:11.131Z,9.40
2018-02-20T21:51:40.215Z,9.40
2018-02-20T21:54:09.168Z,9.40
2018-02-20T21:56:38.246Z,9.30
2018-02-20T21:59:07.396Z,9.30
2018-02-20T22:01:36.297Z,9.30
2018-02-20T22:04:05.322Z,9.30
2018-02-20T22:06:35.273Z,9.20
2018-02-20T22:09:04.361Z,9.20
2018-02-20T22:11:33.312Z,9.20
2018-02-20T22:14:02.468Z,9.10
2018-02-20T22:16:31.679Z,9.10
2018-02-20T22:19:00.844Z,9.10
2018-02-20T22:21:29.790Z,9.00
2018-02-20T22:23:58.716Z,8.90
2018-02-20T22:26:27.750Z,9.00
2018-02-20T22:28:56.668Z,8.90
2018-02-20T22:31:25.608Z,8.90
2018-02-20T22:33:55.390Z,8.80
2018-02-20T22:36:24.485Z,8.80
2018-02-20T22:38:53.491Z,8.70
2018-02-20T22:41:22.400Z,8.70
2018-02-20T22:43:51.336Z,8.60
2018-02-20T22:46:20.311Z,8.70
2018-02-20T22:48:49.239Z,8.70
2018-02-20T22:51:18.425Z,8.60
2018-02-20T22:53:47.660Z,8.70
2018-02-20T22:56:16.761Z,8.60
2018-02-20T22:58:45.988Z,8.60
2018-02-20T23:01:14.973Z,8.50
2018-02-20T23:03:43.949Z,8.50
2018-02-20T23:06:13.734Z,8.50
2018-02-20T23:08:42.881Z,8.40
2018-02-20T23:11:11.880Z,8.40
2018-02-20T23:13:40.640Z,8.40
2018-02-20T23:16:09.584Z,8.40
2018-02-20T23:18:38.599Z,8.40
2018-02-20T23:21:08.143Z,8.50
2018-02-20T23:23:37.939Z,8.50
2018-02-20T23:26:07.553Z,8.40
2018-02-20T23:28:36.486Z,8.40
2018-02-20T23:31:05.531Z,8.40
2018-02-20T23:33:34.706Z,8.40
2018-02-20T23:36:03.628Z,8.40
2018-02-20T23:38:33.244Z,8.30
2018-02-20T23:41:02.144Z,8.30
2018-02-20T23:43:31.265Z,8.30
2018-02-20T23:46:00.187Z,8.30
2018-02-20T23:48:29.315Z,8.30
2018-02-20T23:51:04.007Z,8.30
2018-02-20T23:53:32.931Z,8.20
2018-02-20T23:56:01.910Z,8.20
2018-02-20T23:58:31.963Z,8.10
